METAR Data

Data at: 1740 UTC 21 Nov 2018

METAR for:KAUG (Augusta/State Arpt, ME, US)
Text:KAUG 211653Z AUTO 20009G17KT 180V250 10SM OVC095 M01/M05 A2980 RMK AO2 SLP097 T10061050
Temperature: -0.6°C ( 31°F)
Dewpoint: -5.0°C ( 23°F) [RH = 72%]
Pressure (altimeter):29.80 inches Hg (1009.2 mb) [Sea level pressure: 1009.7 mb]
Winds:from the SSW (200 degrees) at 10 MPH (9 knots; 4.6 m/s) gusting to 20 MPH (17 knots; 8.7 m/s)
Visibility:10 or more sm (16+ km)
Ceiling:9500 feet AGL
Clouds: overcast cloud deck at 9500 feet AGL
QC Flag:automated observation with no human augmentation